Terminal Aerodrome Forecast
Issued by NWS

Home | Current Version | Previous Version | Text Only | Print | Product List | Glossary On
Versions: 1 2 3 4 5 6 7 8 9 10 11 12 13 14 15 16 17 18 19 20 21 22 23
108
FTUS43 KGRB 022338
TAFATW
TAF
KATW 022338Z 0300/0324 05014G24KT 2SM -SN OVC004
      TEMPO 0300/0304 1SM -SNPL BR BKN008
     FM030400 04012KT 4SM BR BKN008
      TEMPO 0304/0308 2SM -FZDZ BR OVC005
     FM031000 35008KT 4SM -FZDZSN BR BKN008
     FM031400 33015G25KT 2SM -SN BKN008
      TEMPO 0316/0320 1SM -SN OVC006
     FM032000 31014G25KT 5SM -SHSN OVC015=

USA.gov is the U.S. government's official web portal to all federal, state and local government web resources and services.